Terminal Aerodrome Forecast
Issued by NWS Cleveland, OH

Home | Current Version | Previous Version | Graphics & Text | Print | Product List | Glossary On
Versions: 1 2 3 4 5 6 7 8 9 10 11 12 13 14 15 16 17 18 19 20 21 22 23 24
000
FTUS41 KCLE 190500
TAFMFD
TAF
KMFD 190520Z 1906/2006 31008KT P6SM SCT025 OVC035
      TEMPO 1906/1910 OVC025
     FM191000 30005KT P6SM SCT035
     FM191200 29005KT P6SM SKC
     FM191800 25008KT P6SM SKC
     FM200000 20005KT P6SM SCT250=

USA.gov is the U.S. government's official web portal to all federal, state and local government web resources and services.